Time;durP1;ratioP1;P1;durP2;ratioP2;P2;SDS_P1;SDS_P2;PMS_P1;PMS_P2;Temp;Humidity;BMP_temperature;BMP_pressure;BME280_temperature;BME280_humidity;BME280_pressure;Samples;Min_cycle;Max_cycle;Signal;HPM_P1;HPM_P2
2021/04/13 00:02:26;;;;;;;0.20;0.20;;;;;;;2.28;47.01;100584.03;4952201;29;20178;-58
2021/04/13 00:05:00;;;;;;;0.20;0.20;;;;;;;2.25;47.12;100587.03;4952061;29;20086;-59
2021/04/13 00:07:29;;;;;;;0.20;0.20;;;;;;;2.21;47.04;100591.88;4952095;29;20054;-58
2021/04/13 00:09:58;;;;;;;0.20;0.20;;;;;;;2.18;47.22;100599.41;4971969;28;20582;-58
2021/04/13 00:12:29;;;;;;;0.10;0.10;;;;;;;2.17;47.44;100595.00;4971461;28;20485;-59
2021/04/13 00:15:06;;;;;;;0.20;0.20;;;;;;;2.14;47.01;100593.41;4971913;28;20042;-58
2021/04/13 00:17:33;;;;;;;0.20;0.20;;;;;;;2.15;47.05;100596.97;4972098;28;20171;-60
2021/04/13 00:20:35;;;;;;;0.20;0.20;;;;;;;2.16;47.18;100593.28;4971394;28;20062;-59
2021/04/13 00:23:02;;;;;;;0.20;0.20;;;;;;;2.14;47.22;100590.69;4973126;28;20138;-60
2021/04/13 00:25:34;;;;;;;1.55;0.63;;;;;;;2.14;47.15;100606.09;4975467;28;20038;-59
2021/04/13 00:28:00;;;;;;;0.20;0.20;;;;;;;2.12;47.23;100608.97;4975130;28;20039;-58
2021/04/13 00:30:29;;;;;;;0.20;0.20;;;;;;;2.12;47.19;100597.25;4974930;28;20050;-58
2021/04/13 00:33:01;;;;;;;0.20;0.20;;;;;;;2.14;47.26;100597.97;4958519;28;20089;-57
2021/04/13 00:35:41;;;;;;;0.20;0.20;;;;;;;2.14;47.37;100600.69;4984984;28;20040;-59
2021/04/13 00:38:17;;;;;;;0.20;0.20;;;;;;;2.15;47.29;100605.09;5058502;28;20033;-57
2021/04/13 00:40:49;;;;;;;0.20;0.20;;;;;;;2.15;47.10;100600.56;5095756;28;20549;-58
2021/04/13 00:43:17;;;;;;;0.20;0.20;;;;;;;2.14;47.19;100603.41;5095554;28;20509;-59
2021/04/13 00:45:46;;;;;;;0.20;0.20;;;;;;;2.14;47.13;100595.28;5096119;28;20386;-58
2021/04/13 00:48:17;;;;;;;0.20;0.20;;;;;;;2.14;47.12;100600.69;5095534;28;20050;-57
2021/04/13 00:50:49;;;;;;;0.20;0.20;;;;;;;2.13;47.24;100598.97;5095628;28;20059;-58
2021/04/13 00:53:20;;;;;;;0.20;0.20;;;;;;;2.13;47.22;100599.81;5095964;28;20051;-57
2021/04/13 00:55:56;;;;;;;0.20;0.20;;;;;;;2.14;47.18;100603.41;5095355;28;20035;-65
2021/04/13 00:58:32;;;;;;;0.20;0.20;;;;;;;2.15;46.98;100607.81;5095491;28;20032;-58
2021/04/13 01:01:08;;;;;;;0.20;0.20;;;;;;;2.15;47.15;100605.97;5095529;28;20409;-57
2021/04/13 01:03:34;;;;;;;0.20;0.20;;;;;;;2.16;47.14;100610.38;5095426;28;20032;-57
2021/04/13 01:06:01;;;;;;;0.20;0.20;;;;;;;2.16;47.06;100609.53;5095128;28;20032;-59
2021/04/13 01:08:32;;;;;;;0.20;0.20;;;;;;;2.14;47.06;100600.69;5095655;28;20113;-56
2021/04/13 01:11:14;;;;;;;0.20;0.20;;;;;;;2.16;46.99;100606.81;5095569;28;20071;-58
2021/04/13 01:14:05;;;;;;;0.20;0.20;;;;;;;2.19;47.06;100606.53;5076832;28;20032;-59
2021/04/13 01:16:35;;;;;;;0.20;0.20;;;;;;;2.21;46.81;100602.72;5094343;28;20040;-58
2021/04/13 01:19:14;;;;;;;0.20;0.20;;;;;;;2.26;47.06;100605.00;5095221;28;20039;-59
2021/04/13 01:21:53;;;;;;;0.20;0.20;;;;;;;2.31;46.95;100601.88;5092611;28;20036;-58
2021/04/13 01:24:26;;;;;;;0.20;0.20;;;;;;;2.35;46.86;100598.75;5093264;28;20039;-54
2021/04/13 01:26:54;;;;;;;0.20;0.20;;;;;;;2.36;46.74;100610.47;5095458;28;20440;-53
2021/04/13 01:29:24;;;;;;;0.20;0.20;;;;;;;2.37;46.84;100617.59;5094906;28;20110;-54
2021/04/13 01:31:55;;;;;;;0.20;0.20;;;;;;;2.39;46.81;100611.03;5094877;28;20036;-53
2021/04/13 01:34:31;;;;;;;0.20;0.20;;;;;;;2.42;46.82;100610.75;5093272;28;20089;-55
2021/04/13 01:37:11;;;;;;;0.20;0.20;;;;;;;2.49;46.76;100618.34;5080309;28;20461;-56
2021/04/13 01:42:27;;;;;;;0.20;0.20;;;;;;;2.57;46.60;100613.09;5074144;28;20446;-59
2021/04/13 01:44:57;;;;;;;0.20;0.20;;;;;;;2.63;46.66;100617.97;5068228;28;20036;-47
2021/04/13 01:47:25;;;;;;;0.20;0.20;;;;;;;2.70;46.36;100615.56;5073225;28;20119;-54
2021/04/13 01:49:58;;;;;;;0.20;0.20;;;;;;;2.76;46.51;100623.97;5073815;28;20032;-50
2021/04/13 01:52:32;;;;;;;0.20;0.20;;;;;;;2.84;46.33;100614.28;5059781;28;20028;-59
2021/04/13 01:55:07;;;;;;;0.30;0.30;;;;;;;2.89;46.30;100617.44;5090437;28;20024;-58
2021/04/13 01:58:00;;;;;;;0.55;0.55;;;;;;;2.96;46.04;100615.91;5087767;28;20036;-57
2021/04/13 02:00:32;;;;;;;0.30;0.30;;;;;;;3.21;45.97;100627.19;5083216;28;20032;-60
2021/04/13 02:03:11;;;;;;;0.20;0.20;;;;;;;5.09;42.75;100620.81;5084798;28;20036;-60
2021/04/13 02:05:41;;;;;;;0.20;0.20;;;;;;;7.45;39.11;100616.94;5089848;28;20032;-61
2021/04/13 02:08:15;;;;;;;0.20;0.20;;;;;;;9.85;36.00;100611.28;5090516;28;20097;-59
2021/04/13 02:10:45;;;;;;;;;;;;;;;11.70;34.07;100610.25;5080473;28;20516;-60
2021/04/13 02:13:17;;;;;;;0.20;0.20;;;;;;;13.28;33.10;100610.53;5092078;28;20290;-60
2021/04/13 02:16:02;;;;;;;0.10;0.10;;;;;;;14.68;32.22;100606.06;5090817;28;20482;-60
2021/04/13 02:18:39;;;;;;;0.10;0.10;;;;;;;15.91;31.86;100604.91;5105856;28;20032;-60
2021/04/13 02:21:20;;;;;;;0.10;0.10;;;;;;;16.90;31.61;100608.81;5073001;28;20032;-61
2021/04/13 02:23:52;;;;;;;0.20;0.20;;;;;;;17.77;31.26;100600.09;5091165;28;20072;-57
2021/04/13 02:26:19;;;;;;;0.10;0.10;;;;;;;18.50;31.15;100591.56;5084269;28;20440;-58
2021/04/13 02:28:46;;;;;;;0.10;0.10;;;;;;;19.19;31.06;100580.50;5073193;28;20053;-60
2021/04/13 02:31:36;;;;;;;0.10;0.10;;;;;;;19.86;30.82;100578.94;5092390;28;20028;-58
2021/04/13 02:34:15;;;;;;;0.10;0.10;;;;;;;20.46;30.79;100580.13;5093393;28;20031;-59
2021/04/13 02:36:46;;;;;;;0.10;0.10;;;;;;;21.05;30.93;100580.63;5105009;28;20172;-59
2021/04/13 02:39:14;;;;;;;0.38;0.38;;;;;;;21.67;30.64;100580.19;5095218;28;20039;-59
2021/04/13 02:41:51;;;;;;;0.10;0.10;;;;;;;22.19;30.56;100581.44;5113407;28;20027;-59
2021/04/13 02:44:23;;;;;;;0.20;0.20;;;;;;;22.54;30.75;100579.13;5113680;28;20027;-59
2021/04/13 02:46:53;;;;;;;0.10;0.10;;;;;;;22.89;30.30;100581.28;5113288;28;20036;-58
2021/04/13 02:49:20;;;;;;;0.10;0.10;;;;;;;23.25;30.31;100575.81;5113677;28;20130;-59
2021/04/13 02:51:50;;;;;;;0.20;0.20;;;;;;;23.58;30.55;100575.59;5090393;28;20437;-59
2021/04/13 02:54:21;;;;;;;0.10;0.10;;;;;;;23.85;30.61;100574.47;5092739;28;20036;-61
2021/04/13 02:56:50;;;;;;;0.10;0.10;;;;;;;24.16;30.37;100575.34;5086576;28;20023;-62
2021/04/13 02:59:16;;;;;;;0.10;0.10;;;;;;;24.59;30.05;100577.81;5074781;28;20401;-60
2021/04/13 03:02:00;;;;;;;0.10;0.10;;;;;;;25.09;29.46;100580.66;5074828;28;20036;-59
2021/04/13 03:04:28;;;;;;;0.10;0.10;;;;;;;26.33;28.59;100577.81;5093077;28;20089;-59
2021/04/13 03:06:57;;;;;;;0.10;0.10;;;;;;;26.82;28.70;100576.72;5087973;28;20024;-61
2021/04/13 03:09:27;;;;;;;0.10;0.10;;;;;;;26.96;28.79;100567.50;5080573;28;20047;-60
2021/04/13 03:11:58;;;;;;;0.10;0.10;;;;;;;26.87;29.06;100567.34;5077375;28;20444;-61
2021/04/13 03:14:25;;;;;;;0.10;0.10;;;;;;;27.06;29.07;100571.06;5072871;28;20090;-59
2021/04/13 03:16:56;;;;;;;0.17;0.15;;;;;;;27.38;29.05;100557.38;5083694;28;20035;-60
2021/04/13 03:19:27;;;;;;;0.57;0.57;;;;;;;27.47;29.59;100569.63;5092452;28;20040;-60
2021/04/13 03:22:02;;;;;;;0.10;0.10;;;;;;;27.39;29.66;100573.16;5092441;28;20039;-63
2021/04/13 03:24:37;;;;;;;0.10;0.10;;;;;;;27.43;29.85;100562.97;5072626;28;20044;-60
2021/04/13 03:27:11;;;;;;;0.10;0.10;;;;;;;27.40;29.93;100563.53;5072959;28;20094;-59
2021/04/13 03:30:15;;;;;;;0.10;0.10;;;;;;;27.66;29.69;100560.34;5072794;28;20046;-59
2021/04/13 03:33:04;;;;;;;0.10;0.10;;;;;;;27.89;29.60;100559.38;5030316;28;20099;-60
2021/04/13 03:35:32;;;;;;;0.10;0.10;;;;;;;28.10;29.59;100554.22;5013710;28;20459;-60
2021/04/13 03:38:00;;;;;;;0.10;0.10;;;;;;;28.22;29.37;100550.88;5030724;28;20033;-59
2021/04/13 03:40:28;;;;;;;0.10;0.10;;;;;;;28.29;29.60;100539.19;5030197;28;20037;-59
2021/04/13 03:42:59;;;;;;;0.10;0.10;;;;;;;28.67;29.04;100537.03;5030801;28;20099;-60
2021/04/13 03:45:26;;;;;;;0.43;0.43;;;;;;;29.01;28.87;100540.56;5030455;28;20037;-60
2021/04/13 03:47:53;;;;;;;0.25;0.25;;;;;;;29.21;29.09;100547.75;5013416;28;20506;-59
2021/04/13 03:50:24;;;;;;;0.10;0.10;;;;;;;29.11;28.98;100548.00;5013779;28;20136;-58
2021/04/13 03:53:04;;;;;;;0.10;0.10;;;;;;;29.15;29.00;100549.88;5030351;28;20072;-60
2021/04/13 03:55:32;;;;;;;0.10;0.10;;;;;;;29.56;28.70;100558.56;5030810;28;20049;-60
2021/04/13 03:57:58;;;;;;;0.10;0.10;;;;;;;29.91;28.56;100556.03;5031975;28;20025;-59
2021/04/13 04:00:28;;;;;;;0.10;0.10;;;;;;;30.09;28.30;100546.47;5034349;28;20033;-59
2021/04/13 04:02:54;;;;;;;3.03;0.30;;;;;;;30.19;28.32;100549.03;5017527;28;20047;-59
2021/04/13 04:05:23;;;;;;;0.10;0.10;;;;;;;30.43;28.16;100555.50;5034258;28;20034;-60
2021/04/13 04:07:58;;;;;;;0.25;0.20;;;;;;;30.61;28.00;100547.91;5049462;28;20040;-58
2021/04/13 04:10:44;;;;;;;0.15;0.15;;;;;;;30.76;27.97;100553.13;5057996;28;20165;-57
2021/04/13 04:13:21;;;;;;;0.10;0.10;;;;;;;30.87;27.77;100548.81;5075834;28;20033;-59
2021/04/13 04:15:52;;;;;;;0.00;0.00;;;;;;;29.62;29.15;100541.16;5075936;28;20033;-59
2021/04/13 04:18:28;;;;;;;0.10;0.10;;;;;;;26.67;32.42;100552.38;5057749;28;20131;-60
2021/04/13 04:20:55;;;;;;;0.10;0.10;;;;;;;23.76;36.00;100555.44;5075773;28;20051;-60
2021/04/13 04:23:29;;;;;;;0.05;0.05;;;;;;;21.37;38.34;100546.34;5076118;28;20024;-61
2021/04/13 04:26:06;;;;;;;0.10;0.10;;;;;;;19.38;40.23;100550.50;5075658;28;20114;-58
2021/04/13 04:28:36;;;;;;;0.10;0.10;;;;;;;18.01;41.47;100548.19;5088317;28;20039;-60
2021/04/13 04:31:34;;;;;;;0.10;0.10;;;;;;;17.09;41.65;100552.22;5076887;28;20131;-59
2021/04/13 04:34:15;;;;;;;0.10;0.10;;;;;;;16.35;41.47;100557.81;5076463;28;20028;-59
2021/04/13 04:36:43;;;;;;;0.10;0.10;;;;;;;15.74;41.18;100554.75;5104968;28;20048;-60
2021/04/13 04:39:31;;;;;;;0.10;0.10;;;;;;;15.23;41.07;100550.25;5095449;28;20062;-61
2021/04/13 04:42:10;;;;;;;0.10;0.10;;;;;;;14.65;40.85;100551.19;5099285;28;20484;-60
2021/04/13 04:44:38;;;;;;;0.10;0.10;;;;;;;14.22;40.72;100563.63;5115980;28;20031;-60
2021/04/13 04:47:37;;;;;;;0.10;0.10;;;;;;;13.81;40.49;100548.19;5080599;28;20084;-59
2021/04/13 04:50:09;;;;;;;0.20;0.20;;;;;;;13.43;40.33;100562.63;5095504;28;20489;-59
2021/04/13 04:52:35;;;;;;;0.10;0.10;;;;;;;13.14;40.01;100557.22;5095664;28;20036;-60
2021/04/13 04:55:02;;;;;;;0.10;0.10;;;;;;;12.94;39.64;100556.31;5095588;28;20081;-59
2021/04/13 04:57:27;;;;;;;0.22;0.22;;;;;;;12.73;39.35;100547.13;5095793;28;20103;-59
2021/04/13 04:59:53;;;;;;;0.10;0.10;;;;;;;12.56;38.69;100538.41;5094978;28;20127;-60
2021/04/13 05:02:19;;;;;;;0.10;0.10;;;;;;;12.53;38.62;100543.47;5077571;28;20028;-60
2021/04/13 05:04:45;;;;;;;0.10;0.10;;;;;;;12.48;38.04;100535.81;5113152;28;20385;-60
2021/04/13 05:07:11;;;;;;;0.38;0.38;;;;;;;12.44;37.80;100545.56;5115491;28;20031;-59
2021/04/13 05:09:37;;;;;;;0.47;0.47;;;;;;;12.33;37.42;100543.38;5115539;28;20031;-59
2021/04/13 05:12:04;;;;;;;0.10;0.10;;;;;;;12.25;37.18;100536.97;5115375;28;20038;-58
2021/04/13 05:14:30;;;;;;;0.10;0.10;;;;;;;12.21;36.98;100532.94;5115308;28;20110;-59
2021/04/13 05:16:55;;;;;;;0.10;0.10;;;;;;;12.25;36.75;100536.97;5115989;28;20465;-59
2021/04/13 05:19:21;;;;;;;0.10;0.10;;;;;;;12.26;36.52;100533.19;5115128;28;20034;-59
2021/04/13 05:21:48;;;;;;;0.10;0.10;;;;;;;12.19;36.35;100526.78;5096927;28;20024;-59
2021/04/13 05:24:14;;;;;;;0.10;0.10;;;;;;;12.17;36.10;100528.88;5079986;28;20054;-59
2021/04/13 05:26:40;;;;;;;0.10;0.10;;;;;;;12.12;35.95;100531.41;5096822;28;20035;-59
2021/04/13 05:29:07;;;;;;;0.13;0.13;;;;;;;12.10;35.52;100530.75;5115245;28;20396;-60
2021/04/13 05:31:37;;;;;;;0.10;0.10;;;;;;;12.04;35.44;100524.16;5115064;28;20039;-58
2021/04/13 05:34:03;;;;;;;0.20;0.20;;;;;;;11.99;35.30;100531.31;5114905;28;20061;-59
2021/04/13 05:36:29;;;;;;;0.10;0.10;;;;;;;11.90;35.40;100528.69;5114882;28;20051;-58
2021/04/13 05:38:54;;;;;;;0.10;0.10;;;;;;;11.88;35.29;100533.56;5115243;28;20036;-60
2021/04/13 05:41:20;;;;;;;0.10;0.10;;;;;;;11.86;35.29;100532.06;5096561;28;20067;-59
2021/04/13 05:43:46;;;;;;;0.10;0.10;;;;;;;11.83;34.82;100527.78;5115164;28;20107;-59
2021/04/13 05:46:16;;;;;;;0.20;0.20;;;;;;;11.81;34.73;100529.91;5096525;28;20032;-59
2021/04/13 05:48:42;;;;;;;0.10;0.10;;;;;;;11.82;34.67;100531.63;5114572;28;20031;-59
2021/04/13 05:51:08;;;;;;;0.10;0.10;;;;;;;11.89;34.53;100528.88;5114934;28;20031;-58
2021/04/13 05:53:34;;;;;;;0.10;0.10;;;;;;;11.93;34.26;100530.22;5114466;28;20031;-59
2021/04/13 05:56:00;;;;;;;0.10;0.10;;;;;;;11.92;34.15;100526.59;5114796;28;20038;-59
2021/04/13 05:58:34;;;;;;;0.10;0.10;;;;;;;11.92;34.15;100523.84;5114651;28;20020;-59
2021/04/13 06:01:04;;;;;;;0.20;0.20;;;;;;;11.89;34.14;100526.13;5114473;28;20040;-58
2021/04/13 06:03:31;;;;;;;0.20;0.20;;;;;;;11.90;33.75;100511.34;5096004;28;20051;-59
2021/04/13 06:05:57;;;;;;;0.10;0.10;;;;;;;11.92;33.65;100509.22;5114304;28;20028;-59
2021/04/13 06:08:24;;;;;;;0.20;0.20;;;;;;;11.91;33.67;100507.50;5114774;28;20039;-59
2021/04/13 06:10:53;;;;;;;0.20;0.20;;;;;;;11.93;33.58;100505.44;5096035;28;20042;-58
2021/04/13 06:13:19;;;;;;;0.17;0.17;;;;;;;11.94;33.53;100518.19;5113601;28;20042;-58
2021/04/13 06:15:44;;;;;;;0.10;0.10;;;;;;;11.97;33.44;100520.53;5095844;28;20023;-59
2021/04/13 06:18:10;;;;;;;0.10;0.10;;;;;;;11.97;33.28;100505.88;5092754;28;20026;-60
2021/04/13 06:20:36;;;;;;;0.10;0.10;;;;;;;11.95;33.32;100505.25;5111794;28;20378;-58
2021/04/13 06:23:02;;;;;;;0.10;0.10;;;;;;;11.91;33.28;100497.38;5113739;28;20031;-60
2021/04/13 06:25:31;;;;;;;0.10;0.10;;;;;;;11.89;32.83;100496.69;5113813;28;20030;-59
2021/04/13 06:27:58;;;;;;;0.10;0.10;;;;;;;11.90;32.97;100501.16;5113804;28;20035;-59
2021/04/13 06:30:25;;;;;;;0.10;0.10;;;;;;;11.94;32.78;100489.78;5095585;28;20045;-59
2021/04/13 06:32:53;;;;;;;0.10;0.10;;;;;;;11.97;32.92;100494.88;5113891;28;20027;-59
2021/04/13 06:35:20;;;;;;;0.10;0.10;;;;;;;12.05;32.38;100491.97;5080297;28;20035;-59
2021/04/13 06:37:48;;;;;;;0.28;0.28;;;;;;;12.11;32.61;100484.81;5091964;28;20024;-58
2021/04/13 06:40:41;;;;;;;0.10;0.10;;;;;;;12.16;32.29;100483.13;5093195;28;20044;-58
2021/04/13 06:43:25;;;;;;;0.20;0.20;;;;;;;12.16;32.41;100483.13;5108974;28;20036;-59
2021/04/13 06:46:06;;;;;;;0.10;0.10;;;;;;;12.17;32.24;100482.06;5093401;28;20074;-58
2021/04/13 06:48:32;;;;;;;0.30;0.30;;;;;;;12.21;32.29;100477.84;5058315;28;20047;-58
2021/04/13 06:51:14;;;;;;;0.10;0.10;;;;;;;12.25;32.25;100473.63;5093146;28;20024;-58
2021/04/13 06:54:01;;;;;;;0.20;0.20;;;;;;;12.33;31.87;100463.50;5093209;28;20040;-58
2021/04/13 06:56:41;;;;;;;0.10;0.10;;;;;;;12.38;32.06;100460.97;5061120;28;20467;-60
2021/04/13 06:59:19;;;;;;;0.10;0.10;;;;;;;12.46;31.78;100460.78;5072816;28;20039;-58
2021/04/13 07:02:02;;;;;;;0.10;0.10;;;;;;;12.50;31.57;100456.56;5072811;28;20028;-59
2021/04/13 07:04:43;;;;;;;0.20;0.20;;;;;;;12.51;31.66;100447.22;5072743;28;20082;-57
2021/04/13 07:07:17;;;;;;;0.10;0.10;;;;;;;12.56;31.72;100454.91;5072591;28;20047;-59
2021/04/13 07:09:55;;;;;;;0.10;0.10;;;;;;;12.58;31.56;100448.09;5071871;28;20044;-58
2021/04/13 07:12:40;;;;;;;0.10;0.10;;;;;;;12.61;31.56;100450.44;5072759;28;20037;-59
2021/04/13 07:15:25;;;;;;;0.10;0.10;;;;;;;12.66;31.31;100446.22;5072702;28;20122;-61
2021/04/13 07:18:02;;;;;;;0.10;0.10;;;;;;;12.73;31.24;100441.56;5072441;28;20029;-57
2021/04/13 07:20:35;;;;;;;0.10;0.10;;;;;;;12.75;31.21;100436.69;5087852;28;20036;-58
2021/04/13 07:23:08;;;;;;;0.10;0.10;;;;;;;12.76;31.04;100432.88;5072490;28;20490;-59
2021/04/13 07:25:41;;;;;;;0.15;0.15;;;;;;;12.77;31.42;100429.91;5072399;28;20032;-61
2021/04/13 07:28:20;;;;;;;0.20;0.20;;;;;;;12.79;31.12;100427.81;5072396;28;20122;-60
2021/04/13 07:30:56;;;;;;;0.10;0.10;;;;;;;12.85;31.23;100426.09;5072452;28;20055;-59
2021/04/13 07:33:27;;;;;;;0.10;0.10;;;;;;;12.86;31.00;100418.69;5071828;28;20081;-60
2021/04/13 07:36:00;;;;;;;0.10;0.10;;;;;;;12.87;31.26;100418.47;5072298;28;20510;-59
2021/04/13 07:38:31;;;;;;;0.10;0.10;;;;;;;12.88;30.96;100414.69;5054327;28;20033;-58
2021/04/13 07:41:07;;;;;;;0.15;0.15;;;;;;;12.88;31.30;100408.28;5082431;28;20057;-58
2021/04/13 07:43:44;;;;;;;0.20;0.20;;;;;;;12.96;31.00;100406.19;5091754;28;20040;-58
2021/04/13 07:46:35;;;;;;;0.10;0.10;;;;;;;13.05;31.06;100400.47;5088859;28;20047;-58
2021/04/13 07:49:07;;;;;;;0.10;0.10;;;;;;;13.06;30.62;100405.78;5090760;28;20439;-59
2021/04/13 07:51:44;;;;;;;0.10;0.10;;;;;;;13.11;30.87;100399.63;5091972;28;20036;-58
2021/04/13 07:54:50;;;;;;;0.10;0.10;;;;;;;13.17;30.81;100393.25;5091287;28;20032;-60
2021/04/13 07:57:49;;;;;;;0.10;0.10;;;;;;;13.22;30.50;100382.44;5073876;28;20040;-59
2021/04/13 08:00:19;;;;;;;0.10;0.10;;;;;;;13.26;30.80;100389.19;5092029;28;20051;-58
2021/04/13 08:03:14;;;;;;;0.30;0.30;;;;;;;13.32;30.60;100382.84;5091937;28;20036;-61
2021/04/13 08:05:43;;;;;;;0.10;0.10;;;;;;;13.38;30.28;100383.91;5068724;28;20486;-60
2021/04/13 08:08:42;;;;;;;0.10;0.10;;;;;;;13.41;30.72;100383.50;5091742;28;20031;-59
2021/04/13 08:11:20;;;;;;;0.10;0.10;;;;;;;13.44;30.69;100374.78;5091311;28;20482;-60
2021/04/13 08:13:49;;;;;;;0.10;0.10;;;;;;;13.47;30.50;100362.44;5090121;28;20142;-60
2021/04/13 08:16:29;;;;;;;0.10;0.10;;;;;;;13.48;30.49;100355.88;5071878;28;20024;-60
2021/04/13 08:19:17;;;;;;;0.10;0.10;;;;;;;13.54;30.37;100360.53;5085795;28;20092;-59
2021/04/13 08:21:42;;;;;;;0.10;0.10;;;;;;;13.57;30.20;100357.31;5088508;28;20032;-60
2021/04/13 08:24:33;;;;;;;0.10;0.10;;;;;;;13.61;30.09;100344.78;5090079;28;20024;-62
2021/04/13 08:27:18;;;;;;;0.10;0.10;;;;;;;13.64;30.35;100341.59;5077207;28;20390;-60
2021/04/13 08:30:22;;;;;;;0.10;0.10;;;;;;;13.68;30.36;100347.53;5078360;28;20116;-61
2021/04/13 08:33:02;;;;;;;0.10;0.10;;;;;;;13.69;30.07;100340.94;5077160;28;20107;-59
2021/04/13 08:36:05;;;;;;;0.70;0.70;;;;;;;13.75;30.10;100342.84;5077651;28;20124;-59
2021/04/13 08:38:49;;;;;;;0.17;0.17;;;;;;;13.81;29.91;100332.84;5077710;28;20547;-60
2021/04/13 08:41:31;;;;;;;0.10;0.10;;;;;;;13.85;30.11;100342.38;5079169;28;20044;-59
2021/04/13 08:44:11;;;;;;;0.10;0.10;;;;;;;13.86;30.11;100340.47;5081214;28;20039;-59
2021/04/13 08:46:53;;;;;;;0.20;0.20;;;;;;;13.87;29.93;100325.56;5080732;28;20498;-58
2021/04/13 08:49:22;;;;;;;0.20;0.20;;;;;;;13.93;30.04;100320.03;5081886;28;20197;-58
2021/04/13 08:52:07;;;;;;;0.10;0.10;;;;;;;14.00;29.84;100315.34;5083150;28;20443;-60
2021/04/13 08:54:35;;;;;;;0.10;0.10;;;;;;;14.08;29.73;100322.50;5082142;28;20429;-60
2021/04/13 08:57:01;;;;;;;0.10;0.10;;;;;;;14.12;30.03;100312.72;5078135;28;20074;-58
2021/04/13 08:59:39;;;;;;;0.10;0.10;;;;;;;14.15;29.92;100316.97;5074351;28;20033;-60
2021/04/13 09:02:33;;;;;;;0.10;0.10;;;;;;;14.16;29.64;100315.88;5074282;28;20034;-60
2021/04/13 09:05:11;;;;;;;0.17;0.17;;;;;;;14.12;29.67;100311.84;5001114;28;20531;-61
2021/04/13 09:07:50;;;;;;;0.20;0.20;;;;;;;14.11;29.80;100299.13;5008896;28;20050;-59
2021/04/13 09:10:34;;;;;;;0.10;0.10;;;;;;;14.11;29.97;100299.13;5006954;28;20064;-60
2021/04/13 09:13:28;;;;;;;0.10;0.10;;;;;;;14.15;29.75;100281.06;5008667;28;20033;-60
2021/04/13 09:16:18;;;;;;;0.10;0.10;;;;;;;14.22;29.63;100276.31;5006477;28;20133;-61
2021/04/13 09:18:44;;;;;;;0.10;0.10;;;;;;;14.27;29.76;100284.78;5006662;28;20179;-59
2021/04/13 09:21:28;;;;;;;0.10;0.10;;;;;;;14.34;29.67;100274.53;5005509;28;20163;-61
2021/04/13 09:24:15;;;;;;;0.10;0.10;;;;;;;14.43;29.41;100271.47;5023808;28;20102;-60
2021/04/13 09:26:49;;;;;;;0.10;0.10;;;;;;;14.51;29.23;100263.75;5007058;28;20033;-60
2021/04/13 09:29:33;;;;;;;0.10;0.10;;;;;;;14.56;29.40;100263.09;5005625;28;20041;-60
2021/04/13 09:32:00;;;;;;;0.10;0.10;;;;;;;14.54;29.13;100255.00;5009024;28;20117;-59
2021/04/13 09:35:01;;;;;;;0.10;0.10;;;;;;;14.60;29.49;100244.13;5008104;28;20042;-59
2021/04/13 09:37:49;;;;;;;0.10;0.10;;;;;;;14.63;29.13;100239.03;4945071;29;20137;-59
2021/04/13 09:40:23;;;;;;;0.10;0.10;;;;;;;14.71;29.17;100230.44;4948622;28;20043;-58
2021/04/13 09:43:13;;;;;;;0.10;0.10;;;;;;;14.77;29.06;100223.16;5013740;28;20053;-60
2021/04/13 09:46:07;;;;;;;0.10;0.10;;;;;;;14.80;29.05;100222.72;5027209;28;20045;-60
2021/04/13 09:48:54;;;;;;;0.15;0.15;;;;;;;14.85;29.04;100222.00;5029263;28;20049;-59
2021/04/13 09:51:42;;;;;;;0.10;0.10;;;;;;;14.89;29.11;100214.97;5026483;28;20041;-63
2021/04/13 09:54:32;;;;;;;0.10;0.10;;;;;;;14.94;28.90;100212.34;5021754;28;20495;-60
2021/04/13 09:57:16;;;;;;;0.10;0.10;;;;;;;14.98;28.93;100213.56;4997425;28;20034;-60
2021/04/13 10:00:00;;;;;;;0.10;0.10;;;;;;;15.04;28.90;100207.13;5031252;28;20033;-61
2021/04/13 10:03:09;;;;;;;0.10;0.10;;;;;;;15.15;28.91;100193.59;5031030;28;20206;-60
2021/04/13 10:05:42;;;;;;;0.10;0.10;;;;;;;15.14;28.92;100197.47;5031129;28;20144;-61
2021/04/13 10:08:25;;;;;;;0.20;0.20;;;;;;;15.22;28.61;100199.91;5031084;28;20539;-61
2021/04/13 10:11:07;;;;;;;0.10;0.10;;;;;;;15.33;28.53;100199.13;5029128;28;20453;-59
2021/04/13 10:13:45;;;;;;;0.10;0.10;;;;;;;15.39;28.58;100205.66;5059281;28;20086;-63
2021/04/13 10:16:32;;;;;;;0.10;0.10;;;;;;;15.47;28.58;100205.31;5092566;28;20431;-60
2021/04/13 10:19:08;;;;;;;0.10;0.10;;;;;;;15.51;28.40;100195.47;5092969;28;20043;-59
2021/04/13 10:21:55;;;;;;;0.10;0.10;;;;;;;15.58;28.44;100195.41;5092922;28;20473;-60
2021/04/13 10:24:48;;;;;;;0.00;0.00;;;;;;;15.61;28.35;100194.09;5092397;28;20028;-59
2021/04/13 10:27:45;;;;;;;0.10;0.10;;;;;;;15.61;28.57;100181.09;5091436;28;20048;-59
2021/04/13 10:30:41;;;;;;;0.15;0.15;;;;;;;15.64;28.54;100171.47;5092948;28;20122;-58
2021/04/13 10:33:16;;;;;;;0.10;0.10;;;;;;;15.71;28.37;100169.47;5091730;28;20081;-58
2021/04/13 10:36:07;;;;;;;0.10;0.10;;;;;;;15.77;28.08;100155.50;5077248;28;20083;-59
2021/04/13 10:38:51;;;;;;;0.10;0.10;;;;;;;15.83;28.20;100152.91;5092132;28;20113;-59
2021/04/13 10:41:44;;;;;;;0.10;0.10;;;;;;;15.91;28.26;100149.78;5074264;28;20554;-60
2021/04/13 10:44:47;;;;;;;0.10;0.10;;;;;;;15.91;28.00;100141.47;5092491;28;20032;-59
2021/04/13 10:47:50;;;;;;;0.10;0.10;;;;;;;15.89;28.04;100135.34;5092421;28;20097;-60
2021/04/13 10:50:46;;;;;;;0.17;0.17;;;;;;;15.92;27.95;100135.69;5092384;28;20401;-60
2021/04/13 10:53:38;;;;;;;0.10;0.10;;;;;;;15.95;28.22;100139.91;5092282;28;20036;-59
2021/04/13 10:56:24;;;;;;;0.17;0.17;;;;;;;15.98;28.04;100131.13;5092338;28;20035;-60
2021/04/13 10:59:32;;;;;;;0.10;0.10;;;;;;;16.05;28.03;100125.50;5090835;28;20517;-59
2021/04/13 11:02:44;;;;;;;0.20;0.20;;;;;;;16.11;27.82;100111.50;5068201;28;20031;-59
2021/04/13 11:05:31;;;;;;;0.10;0.10;;;;;;;16.15;27.76;100105.50;5092763;28;20394;-61
2021/04/13 11:08:16;;;;;;;0.10;0.10;;;;;;;16.16;27.86;100096.94;5087524;28;20538;-59
2021/04/13 11:10:50;;;;;;;0.10;0.10;;;;;;;16.16;27.87;100099.69;5089950;28;20399;-60
2021/04/13 11:13:41;;;;;;;0.10;0.10;;;;;;;16.15;27.73;100102.72;5091994;28;20110;-61
2021/04/13 11:16:35;;;;;;;0.20;0.20;;;;;;;16.13;27.61;100086.34;5092276;28;20043;-60
2021/04/13 11:19:25;;;;;;;0.10;0.10;;;;;;;16.14;27.53;100082.50;5085672;28;20040;-58
2021/04/13 11:22:11;;;;;;;0.10;0.10;;;;;;;16.16;27.74;100082.25;5092210;28;20055;-61
2021/04/13 11:24:59;;;;;;;0.95;0.95;;;;;;;16.18;27.69;100077.28;5073501;28;20134;-60
2021/04/13 11:28:12;;;;;;;0.10;0.10;;;;;;;16.20;27.60;100075.16;5090240;28;20036;-60
2021/04/13 11:31:05;;;;;;;0.28;0.28;;;;;;;16.23;27.49;100080.19;5085120;28;20517;-59
2021/04/13 11:34:05;;;;;;;0.10;0.10;;;;;;;16.24;27.51;100079.97;5076723;28;20543;-58
2021/04/13 11:37:25;;;;;;;0.10;0.10;;;;;;;16.23;27.62;100066.34;5025051;28;20075;-59
2021/04/13 11:40:16;;;;;;;0.10;0.10;;;;;;;16.23;27.30;100069.94;5001699;28;20139;-60
2021/04/13 11:42:43;;;;;;;0.10;0.10;;;;;;;16.26;27.27;100063.09;4996339;28;20062;-59
2021/04/13 11:45:17;;;;;;;0.10;0.10;;;;;;;16.27;27.38;100057.31;5002600;28;20038;-60
2021/04/13 11:48:10;;;;;;;0.10;0.10;;;;;;;16.26;27.45;100052.00;4982227;28;20454;-59
2021/04/13 11:50:45;;;;;;;0.10;0.10;;;;;;;16.24;27.21;100056.97;4976085;28;20456;-60
2021/04/13 11:53:27;;;;;;;0.10;0.10;;;;;;;16.23;27.26;100053.31;4998833;28;20437;-57
2021/04/13 11:55:54;;;;;;;0.10;0.10;;;;;;;16.24;27.53;100051.41;4983439;28;20164;-60
2021/04/13 11:58:33;;;;;;;0.20;0.20;;;;;;;16.27;27.47;100039.84;4984019;28;20045;-61
2021/04/13 12:01:14;;;;;;;0.10;0.10;;;;;;;16.30;27.27;100044.91;4994498;28;20041;-59
2021/04/13 12:03:56;;;;;;;0.10;0.10;;;;;;;16.34;27.05;100037.78;4993633;28;20452;-60
2021/04/13 12:06:47;;;;;;;0.10;0.10;;;;;;;16.38;26.93;100027.88;5009501;28;20057;-59
2021/04/13 12:09:47;;;;;;;0.10;0.10;;;;;;;16.41;27.23;100026.56;4974892;28;20042;-63
2021/04/13 12:15:03;;;;;;;0.10;0.10;;;;;;;16.41;26.99;100013.53;5078141;28;20039;-61
2021/04/13 12:17:38;;;;;;;0.10;0.10;;;;;;;16.41;27.01;100007.16;5082111;28;20509;-59
2021/04/13 12:20:26;;;;;;;0.10;0.10;;;;;;;16.42;27.17;99993.03;5094545;28;20151;-61